KSMN

Lemhi County Airport

Salmon, Idaho, USA
METAR KSMN 231056Z AUTO 00000KT 10SM BKN100 M01/M03 A3008 RMK AO2 SLP188 T10061028 FZRANO
Observed Flight Rules
Oct-23 @ 10:56 UTC (54 minutes ago) Visual Flight Rules
Visibility Clouds
10 miles
  • Broken at 10,000' AGL
Temperatures Readings
Current -1°C / 30°F
Dewpoint -3°C / 27°F
Humidity 86%
Altimeter 30.08" Hg
Pressure 1018.8 hPa
Elevation 1233
METAR KSMN 231056Z AUTO 00000KT 10SM BKN100 M01/M03 A3008 RMK AO2 SLP188 T10061028 FZRANO
Observed Flight Rules
Oct-23 @ 10:56 UTC
(54 minutes ago)
VFR
Clouds
  • Broken at 10,000' AGL
Temperature Dewpoint
-1°C / 30°F -3°C / 27°F
Humidity Altimeter Pressure
86% 30.08" Hg 1018.8 hPa